createdAt,value
2022-08-24T00:05:34.889Z,24.90
2022-08-24T00:15:42.026Z,25.70
2022-08-24T00:25:48.419Z,26.20
2022-08-24T00:35:54.740Z,28.10
2022-08-24T00:46:18.195Z,25.10
2022-08-24T00:56:34.240Z,25.60
2022-08-24T01:06:40.682Z,23.80
2022-08-24T01:17:05.361Z,24.40
2022-08-24T01:27:11.863Z,23.60
2022-08-24T01:37:18.594Z,25.00
2022-08-24T01:47:24.954Z,25.20
2022-08-24T01:57:31.447Z,26.00
2022-08-24T02:07:37.776Z,25.40
2022-08-24T02:17:43.627Z,23.50
2022-08-24T02:27:49.915Z,24.60
2022-08-24T02:37:56.634Z,24.20
2022-08-24T02:48:03.008Z,23.60
2022-08-24T02:58:10.601Z,24.70
2022-08-24T03:08:16.926Z,24.80
2022-08-24T03:18:24.792Z,23.20
2022-08-24T03:28:31.242Z,23.30
2022-08-24T03:38:37.889Z,23.70
2022-08-24T03:48:45.538Z,23.70
2022-08-24T03:58:53.045Z,23.70
2022-08-24T04:08:59.377Z,22.20
2022-08-24T04:19:06.051Z,22.00
2022-08-24T04:29:13.602Z,21.50
2022-08-24T04:39:19.948Z,22.00
2022-08-24T04:49:26.857Z,21.80
2022-08-24T04:59:33.184Z,22.80
2022-08-24T05:09:39.468Z,21.30
2022-08-24T05:19:45.841Z,20.60
2022-08-24T05:29:54.811Z,20.90
2022-08-24T05:40:03.317Z,20.40
2022-08-24T05:50:10.068Z,19.80
2022-08-24T06:00:16.779Z,31.30
2022-08-24T06:10:38.263Z,31.10
2022-08-24T06:20:44.722Z,30.60
2022-08-24T06:30:52.631Z,33.90
2022-08-24T06:40:59.089Z,33.50
2022-08-24T06:51:11.593Z,35.30
2022-08-24T07:01:24.545Z,35.20
2022-08-24T07:11:31.079Z,37.90
2022-08-24T07:21:38.136Z,36.80
2022-08-24T07:31:45.135Z,37.40
2022-08-24T07:42:11.666Z,37.90
2022-08-24T07:52:17.883Z,37.80
2022-08-24T08:02:25.262Z,34.90
2022-08-24T08:12:36.459Z,34.30
2022-08-24T08:23:01.348Z,31.00
2022-08-24T08:33:08.291Z,30.50
2022-08-24T08:43:45.341Z,28.10
2022-08-24T08:54:29.204Z,35.80
2022-08-24T09:05:10.578Z,35.90
2022-08-24T09:15:57.605Z,32.20
2022-08-24T09:26:28.137Z,29.10
2022-08-24T09:36:46.503Z,28.90
2022-08-24T09:47:11.501Z,29.10
2022-08-24T09:57:50.409Z,35.00
2022-08-24T10:08:23.058Z,37.40
2022-08-24T10:18:44.142Z,31.10
2022-08-24T10:28:50.479Z,33.60
2022-08-24T10:39:37.200Z,33.30
2022-08-24T10:50:03.643Z,31.15
2022-08-24T11:00:23.337Z,32.40
2022-08-24T11:10:33.827Z,35.90
2022-08-24T11:20:45.780Z,27.90
2022-08-24T11:30:52.127Z,31.70
2022-08-24T11:41:07.656Z,37.30
2022-08-24T11:51:23.224Z,40.00
2022-08-24T12:01:49.475Z,39.10
2022-08-24T12:12:05.492Z,38.90
2022-08-24T12:22:13.820Z,37.90
2022-08-24T12:32:28.308Z,33.80
2022-08-24T12:42:52.155Z,34.40
2022-08-24T12:53:20.063Z,33.80
2022-08-24T13:03:33.366Z,34.90
2022-08-24T13:14:07.527Z,35.00
2022-08-24T13:24:33.261Z,34.90
2022-08-24T13:34:43.416Z,37.20
2022-08-24T13:45:24.214Z,32.30
2022-08-24T13:55:39.310Z,33.60
2022-08-24T14:05:58.328Z,33.70
2022-08-24T14:16:44.708Z,34.40
2022-08-24T14:27:03.661Z,34.90
2022-08-24T14:37:16.013Z,31.00
2022-08-24T14:47:32.279Z,30.90
2022-08-24T14:58:16.850Z,27.00
2022-08-24T15:08:33.944Z,33.70
2022-08-24T15:19:02.452Z,29.20
2022-08-24T15:29:17.865Z,29.40
2022-08-24T15:39:28.377Z,28.20
2022-08-24T15:49:40.783Z,28.60
2022-08-24T15:59:49.698Z,25.10
2022-08-24T16:10:10.542Z,25.40
2022-08-24T16:20:26.137Z,28.00
2022-08-24T16:30:53.808Z,21.95
2022-08-24T16:41:02.523Z,22.30
2022-08-24T16:51:09.344Z,23.50
2022-08-24T17:01:16.958Z,24.90
2022-08-24T17:11:23.460Z,20.90
2022-08-24T17:21:29.944Z,15.50
2022-08-24T17:31:37.007Z,19.60
2022-08-24T17:41:43.395Z,18.10
2022-08-24T17:51:50.831Z,17.90
2022-08-24T18:02:01.581Z,15.70
2022-08-24T18:12:09.674Z,17.90
2022-08-24T18:22:17.024Z,19.80
2022-08-24T18:32:26.804Z,18.10
2022-08-24T18:42:38.020Z,19.30
2022-08-24T18:52:44.360Z,17.80
2022-08-24T19:02:51.544Z,18.80
2022-08-24T19:13:01.064Z,21.60
2022-08-24T19:23:15.169Z,18.80
2022-08-24T19:33:26.079Z,21.80
2022-08-24T19:43:32.866Z,20.60
2022-08-24T19:53:39.899Z,21.10
2022-08-24T20:03:46.285Z,21.50
2022-08-24T20:13:52.703Z,21.20
2022-08-24T20:24:03.051Z,21.20
2022-08-24T20:34:09.395Z,19.90
2022-08-24T20:44:15.889Z,17.00
2022-08-24T20:54:22.189Z,17.00
2022-08-24T21:04:28.789Z,19.90
2022-08-24T21:14:35.577Z,16.50
2022-08-24T21:24:41.955Z,18.70
2022-08-24T21:34:48.391Z,17.10
2022-08-24T21:44:54.709Z,15.50
2022-08-24T21:55:01.060Z,15.90
2022-08-24T22:05:07.877Z,14.50
2022-08-24T22:15:17.174Z,14.70
2022-08-24T22:25:30.898Z,13.40
2022-08-24T22:35:45.128Z,11.50
2022-08-24T22:45:52.304Z,13.60
2022-08-24T22:56:00.706Z,12.10
2022-08-24T23:06:07.338Z,11.60
2022-08-24T23:16:14.572Z,14.00
2022-08-24T23:26:21.647Z,10.90
2022-08-24T23:36:29.354Z,11.20
2022-08-24T23:46:35.727Z,12.50
2022-08-24T23:56:45.065Z,11.10
